Terminal Aerodrome Forecast
Issued by NWS Tampa Bay Area, FL

Home | Current Version | Previous Version | Text Only | Print | Product List | Glossary Off
Versions: 1 2 3 4 5 6 7 8 9 10 11 12 13 14

000
FTUS42 KTBW 211100
TAFSRQ
TAF
KSRQ 211140Z 2112/2212 VRB03KT P6SM SCT006 SCT070 SCT250
     FM211400 VRB04KT P6SM FEW015 SCT070 SCT250
     FM211600 25006KT P6SM VCSH SCT030 SCT070 SCT250
     FM211800 26008KT P6SM VCTS SCT040CB BKN070
     FM220000 VRB04KT P6SM FEW040 SCT100 BKN250
     FM220600 VRB03KT P6SM BKN100=

USA.gov is the U.S. government's official web portal to all federal, state and local government web resources and services.